DucheSS Of Scandinavia — OUZI2 — position and weather

sailwx.info

Track history (hours):
 
Tides and Currents Weather Stations Pressure Air Temp Water Temp Dewpoint Dewpoint Depression Visibility Wind Speed Wind Dir Waves Ship Positions

DucheSS Of Scandinavia

Operator: DFDS A/S

Last reported at 2017-Jun-24 03:29 UTC. Time now 2017-Jun-24 03:44 UTC.
Position N 59°06' E 010°14'.

Length 134 m; draft 5.4 m.

Type: Passenger vessel. MMSI: 219002929.

Date/timePositionNaut miles runAvg speedWind from/ knotsBaromVisibWave heightAir tempDewpointWater temp
2017-Jun-24 03:29N 59°06' E 010°14'0 0.0
2017-Jun-24 02:59N 59°06' E 010°14'0 0.0
2017-Jun-24 02:29N 59°06' E 010°14'0 0.0
2017-Jun-24 02:00N 59°06' E 010°14'0 0.0
2017-Jun-24 01:30N 59°06' E 010°14'0 0.0
2017-Jun-24 00:57N 59°06' E 010°14'0 0.0
2017-Jun-24 00:28N 59°06' E 010°14'0 0.0
2017-Jun-23 23:58N 59°06' E 010°14'0 0.0
2017-Jun-23 23:28N 59°06' E 010°14'0 0.0
2017-Jun-23 22:59N 59°06' E 010°14'0 0.0
2017-Jun-23 22:29N 59°06' E 010°14'0 0.0
2017-Jun-23 21:59N 59°06' E 010°14'0 0.0
2017-Jun-23 21:30N 59°06' E 010°14'0 0.0
2017-Jun-23 21:00N 59°06' E 010°14'0 0.0
2017-Jun-23 20:27N 59°06' E 010°14'0 0.0
2017-Jun-23 20:01N 59°06' E 010°14'1 1.2
2017-Jun-23 19:30N 59°07' E 010°14'1 1.7
2017-Jun-23 19:01N 59°08' E 010°14'4 8.0
2017-Jun-23 18:31N 59°04' E 010°15'713.9
2017-Jun-23 18:01N 59°01' E 010°27'815.6
2017-Jun-23 17:30N 59°01' E 010°42'815.6
2017-Jun-23 17:01N 59°00' E 010°57'714.9
2017-Jun-23 16:31N 58°56' E 011°09'0 0.9
2017-Jun-23 16:00N 58°56' E 011°10'4 8.0
2017-Jun-23 15:31N 58°58' E 011°03'815.7
2017-Jun-23 15:00N 59°01' E 010°50'1615.8
2017-Jun-23 14:01N 59°01' E 010°19'612.9
2017-Jun-23 13:30N 59°07' E 010°14'1 1.2
2017-Jun-23 13:00N 59°08' E 010°14'0 0.0
2017-Jun-23 12:31N 59°08' E 010°14'4 8.5
2017-Jun-23 12:00N 59°03' E 010°15'713.6
2017-Jun-23 11:31N 59°01' E 010°27'815.4
2017-Jun-23 11:01N 59°01' E 010°42'815.1
2017-Jun-23 10:31N 59°00' E 010°57'715.0
2017-Jun-23 10:01N 58°56' E 011°09'1 1.7
2017-Jun-23 09:31N 58°56' E 011°10'0 0.1
2017-Jun-23 09:01N 58°56' E 011°10'612.3
2017-Jun-23 08:31N 58°59' E 010°60'714.9
2017-Jun-23 08:01N 59°02' E 010°46'714.9
2017-Jun-23 07:30N 59°00' E 010°32'815.1
2017-Jun-23 07:01N 59°01' E 010°17'612.5
2017-Jun-23 06:30N 59°07' E 010°14'0 0.4
2017-Jun-23 06:01N 59°08' E 010°14'0 0.7
2017-Jun-23 05:30N 59°07' E 010°14'1 2.1
2017-Jun-23 05:00N 59°06' E 010°14'0 0.0
2017-Jun-23 04:29N 59°06' E 010°14'0 0.0
2017-Jun-23 03:59N 59°06' E 010°14'0 0.0
2017-Jun-23 03:29N 59°06' E 010°14'0 0.0
2017-Jun-23 03:00N 59°06' E 010°14'0 0.0
2017-Jun-23 02:30N 59°06' E 010°14'0 0.0
2017-Jun-23 02:00N 59°06' E 010°14'0 0.0
2017-Jun-23 01:28N 59°06' E 010°14'0 0.0
2017-Jun-23 00:58N 59°06' E 010°14'0 0.0
2017-Jun-23 00:28N 59°06' E 010°14'0 0.0
2017-Jun-22 23:59N 59°06' E 010°14'0 0.0
2017-Jun-22 23:29N 59°06' E 010°14'0 0.0
2017-Jun-22 22:59N 59°06' E 010°14'0 0.0
2017-Jun-22 22:30N 59°06' E 010°14'0 0.0
2017-Jun-22 22:00N 59°06' E 010°14'0 0.0
2017-Jun-22 21:30N 59°06' E 010°14'0 0.0
2017-Jun-22 20:58N 59°06' E 010°14'0 0.0
2017-Jun-22 20:28N 59°06' E 010°14'0 0.0
2017-Jun-22 19:58N 59°06' E 010°14'0 0.2
2017-Jun-22 19:30N 59°06' E 010°14'1 2.7
2017-Jun-22 19:01N 59°08' E 010°14'4 8.0
2017-Jun-22 18:31N 59°04' E 010°15'714.7
2017-Jun-22 18:00N 59°01' E 010°28'816.5
2017-Jun-22 17:30N 59°01' E 010°44'816.4
2017-Jun-22 17:01N 58°59' E 010°59'713.1
2017-Jun-22 16:31N 58°56' E 011°10'0 0.0
2017-Jun-22 16:01N 58°56' E 011°10'4 7.6
2017-Jun-22 15:30N 58°57' E 011°03'815.1
2017-Jun-22 15:01N 59°01' E 010°51'1515.3
2017-Jun-22 14:01N 59°01' E 010°21'713.4
2017-Jun-22 13:30N 59°07' E 010°14'1 1.9
2017-Jun-22 13:00N 59°08' E 010°14'0 0.0
2017-Jun-22 12:31N 59°08' E 010°14'4 8.6
2017-Jun-22 12:01N 59°03' E 010°15'612.5
2017-Jun-22 11:30N 59°01' E 010°26'714.8
2017-Jun-22 11:00N 59°02' E 010°40'815.7
2017-Jun-22 10:30N 59°00' E 010°55'816.0
2017-Jun-22 10:00N 58°56' E 011°08'1 2.0
2017-Jun-22 09:30N 58°56' E 011°10'0 0.6
2017-Jun-22 09:01N 58°56' E 011°10'714.5
2017-Jun-22 08:31N 58°60' E 010°58'815.9
2017-Jun-22 08:00N 59°01' E 010°42'816.6
2017-Jun-22 07:30N 59°01' E 010°26'714.3
2017-Jun-22 07:00N 59°04' E 010°15'3 6.4
2017-Jun-22 06:30N 59°08' E 010°14'0 0.0
2017-Jun-22 06:00N 59°08' E 010°14'1 2.8
2017-Jun-22 05:31N 59°06' E 010°14'0 0.2
2017-Jun-22 05:00N 59°06' E 010°14'0 0.0
2017-Jun-22 04:30N 59°06' E 010°14'0 0.0
2017-Jun-22 04:00N 59°06' E 010°14'0 0.0
2017-Jun-22 03:30N 59°06' E 010°14'0 0.0
2017-Jun-22 02:58N 59°06' E 010°14'0 0.0
2017-Jun-22 02:28N 59°06' E 010°14'0 0.0
2017-Jun-22 01:58N 59°06' E 010°14'0 0.0
2017-Jun-22 01:29N 59°06' E 010°14'0 0.0
2017-Jun-22 00:59N 59°06' E 010°14'0 0.0
2017-Jun-22 00:29N 59°06' E 010°14'0 0.0
2017-Jun-22 00:00N 59°06' E 010°14'0 0.0
2017-Jun-21 23:30N 59°06' E 010°14'0 0.0
2017-Jun-21 23:00N 59°06' E 010°14'0 0.0
2017-Jun-21 22:28N 59°06' E 010°14'0 0.0
2017-Jun-21 21:58N 59°06' E 010°14'0 0.0
2017-Jun-21 21:28N 59°06' E 010°14'0 0.0
2017-Jun-21 20:59N 59°06' E 010°14'0 0.0
2017-Jun-21 20:29N 59°06' E 010°14'0 0.0
2017-Jun-21 19:59N 59°06' E 010°14'0 1.0
2017-Jun-21 19:30N 59°07' E 010°14'1 1.9
2017-Jun-21 19:01N 59°08' E 010°14'3 5.9
2017-Jun-21 18:30N 59°05' E 010°15'713.9
2017-Jun-21 18:01N 59°01' E 010°26'816.2
2017-Jun-21 17:30N 59°02' E 010°42'815.6
2017-Jun-21 17:00N 59°00' E 010°57'815.5
2017-Jun-21 16:31N 58°56' E 011°09'1 1.4
2017-Jun-21 16:00N 58°56' E 011°10'4 7.8
2017-Jun-21 15:31N 58°57' E 011°03'815.0
2017-Jun-21 15:00N 59°01' E 010°50'815.3
2017-Jun-21 14:30N 59°01' E 010°36'1212.3
2017-Jun-21 13:30N 59°06' E 010°14'1 2.8
2017-Jun-21 13:00N 59°08' E 010°14'0 0.0
2017-Jun-21 12:31N 59°08' E 010°14'4 8.8
2017-Jun-21 12:00N 59°03' E 010°15'713.7
2017-Jun-21 11:30N 59°01' E 010°28'714.9
2017-Jun-21 11:01N 59°01' E 010°42'714.5
2017-Jun-21 10:31N 59°00' E 010°56'815.6
2017-Jun-21 10:01N 58°56' E 011°08'1 2.0
2017-Jun-21 09:30N 58°56' E 011°10'0 0.4
2017-Jun-21 09:01N 58°56' E 011°10'713.1
2017-Jun-21 08:31N 58°59' E 010°59'815.5
2017-Jun-21 08:00N 59°01' E 010°44'815.9
2017-Jun-21 07:31N 59°01' E 010°29'714.8
2017-Jun-21 07:00N 59°03' E 010°15'510.2
2017-Jun-21 06:31N 59°08' E 010°14'0 0.1
2017-Jun-21 06:01N 59°08' E 010°14'1 1.1
2017-Jun-21 05:31N 59°07' E 010°14'1 1.8
2017-Jun-21 05:01N 59°06' E 010°14'0 0.0
2017-Jun-21 04:29N 59°06' E 010°14'0 0.0
2017-Jun-21 03:56N 59°06' E 010°14'0 0.0
2017-Jun-21 03:30N 59°06' E 010°14'0 0.0
2017-Jun-21 03:00N 59°06' E 010°14'0 0.0
2017-Jun-21 02:30N 59°06' E 010°14'0 0.0
2017-Jun-21 01:58N 59°06' E 010°14'0 0.0
2017-Jun-21 01:28N 59°06' E 010°14'0 0.0
2017-Jun-21 00:58N 59°06' E 010°14'0 0.0
2017-Jun-21 00:29N 59°06' E 010°14'0 0.0
2017-Jun-20 23:59N 59°06' E 010°14'0 0.0
2017-Jun-20 23:29N 59°06' E 010°14'0 0.0
2017-Jun-20 23:00N 59°06' E 010°14'0 0.0
2017-Jun-20 22:30N 59°06' E 010°14'0 0.0
2017-Jun-20 22:00N 59°06' E 010°14'0 0.0
2017-Jun-20 21:28N 59°06' E 010°14'0 0.0
2017-Jun-20 20:58N 59°06' E 010°14'0 0.0
2017-Jun-20 20:28N 59°06' E 010°14'0 0.0
2017-Jun-20 20:00N 59°06' E 010°14'1 2.2
2017-Jun-20 19:24N 59°08' E 010°14'0 0.2
2017-Jun-20 19:00N 59°08' E 010°14'3 6.0
2017-Jun-20 18:31N 59°05' E 010°15'612.7
2017-Jun-20 18:01N 59°01' E 010°25'816.6
2017-Jun-20 17:31N 59°02' E 010°41'816.4
2017-Jun-20 17:01N 59°00' E 010°56'815.7
2017-Jun-20 16:31N 58°56' E 011°09'1 1.3
2017-Jun-20 16:01N 58°56' E 011°10'4 7.2
2017-Jun-20 15:31N 58°57' E 011°04'815.9
2017-Jun-20 15:01N 59°01' E 010°50'815.8
2017-Jun-20 14:31N 59°01' E 010°35'1212.5
2017-Jun-20 13:30N 59°07' E 010°14'1 1.8
2017-Jun-20 13:01N 59°08' E 010°14'0 0.0
2017-Jun-20 12:31N 59°08' E 010°14'4 8.1
2017-Jun-20 12:00N 59°04' E 010°15'611.6
2017-Jun-20 11:31N 59°01' E 010°25'815.3
2017-Jun-20 11:01N 59°01' E 010°40'815.7
2017-Jun-20 10:31N 59°00' E 010°55'816.0
2017-Jun-20 10:01N 58°56' E 011°08'1 2.2
2017-Jun-20 09:30N 58°56' E 011°10'0 0.1
2017-Jun-20 09:01N 58°56' E 011°10'612.5
2017-Jun-20 08:31N 58°59' E 010°60'815.1
2017-Jun-20 08:01N 59°02' E 010°46'816.0
2017-Jun-20 07:31N 59°00' E 010°30'815.2
2017-Jun-20 07:01N 59°02' E 010°16'611.7
2017-Jun-20 06:31N 59°08' E 010°14'0 0.1
2017-Jun-20 06:01N 59°08' E 010°14'0 0.8
2017-Jun-20 05:30N 59°07' E 010°14'1 2.1
2017-Jun-20 05:01N 59°06' E 010°14'0 0.0
2017-Jun-20 04:30N 59°06' E 010°14'0 0.0
2017-Jun-20 04:00N 59°06' E 010°14'0 0.0
2017-Jun-20 03:30N 59°06' E 010°14'0 0.0
2017-Jun-20 03:00N 59°06' E 010°14'0 0.0
2017-Jun-20 02:28N 59°06' E 010°14'0 0.0
2017-Jun-20 01:58N 59°06' E 010°14'0 0.0
2017-Jun-20 01:29N 59°06' E 010°14'0 0.0
2017-Jun-20 00:59N 59°06' E 010°14'0 0.0
2017-Jun-20 00:29N 59°06' E 010°14'0 0.0
2017-Jun-20 00:00N 59°06' E 010°14'0 0.0
2017-Jun-19 23:30N 59°06' E 010°14'0 0.0
2017-Jun-19 23:00N 59°06' E 010°14'0 0.0
2017-Jun-19 22:31N 59°06' E 010°14'0 0.0
2017-Jun-19 21:58N 59°06' E 010°14'0 0.0
2017-Jun-19 21:28N 59°06' E 010°14'0 0.0
2017-Jun-19 20:59N 59°06' E 010°14'0 0.0
2017-Jun-19 20:29N 59°06' E 010°14'0 0.0
2017-Jun-19 19:59N 59°06' E 010°14'0 0.1
2017-Jun-19 19:31N 59°06' E 010°14'1 2.7
2017-Jun-19 19:00N 59°08' E 010°14'4 8.5
2017-Jun-19 18:30N 59°03' E 010°15'713.8
2017-Jun-19 18:01N 59°01' E 010°27'714.8
2017-Jun-19 17:31N 59°01' E 010°42'715.0
2017-Jun-19 17:01N 59°00' E 010°56'815.7
2017-Jun-19 16:31N 58°56' E 011°08'1 1.9
2017-Jun-19 16:01N 58°56' E 011°10'4 8.3
2017-Jun-19 15:31N 58°58' E 011°03'815.4
2017-Jun-19 15:01N 59°01' E 010°50'1615.8
2017-Jun-19 14:01N 59°01' E 010°19'712.9
2017-Jun-19 13:29N 59°07' E 010°14'0 0.8
2017-Jun-19 13:01N 59°08' E 010°14'0 0.0
2017-Jun-19 12:30N 59°08' E 010°14'5 9.9
2017-Jun-19 12:01N 59°03' E 010°15'714.9
2017-Jun-19 11:30N 59°01' E 010°29'714.9
2017-Jun-19 11:01N 59°01' E 010°44'714.7
2017-Jun-19 10:31N 59°00' E 010°58'714.4
2017-Jun-19 10:01N 58°56' E 011°09'1 1.2
2017-Jun-19 09:31N 58°56' E 011°10'0 0.3
2017-Jun-19 09:01N 58°56' E 011°10'613.0
2017-Jun-19 08:31N 58°59' E 010°59'714.6
2017-Jun-19 08:01N 59°02' E 010°46'815.0
2017-Jun-19 07:31N 59°00' E 010°31'714.6
2017-Jun-19 07:01N 59°01' E 010°17'612.4
2017-Jun-19 06:31N 59°07' E 010°14'0 0.5
2017-Jun-19 06:01N 59°08' E 010°14'1 2.8
2017-Jun-19 05:31N 59°06' E 010°14'0 0.0
2017-Jun-19 05:00N 59°06' E 010°14'0 0.0
2017-Jun-19 04:30N 59°06' E 010°14'0 0.0
2017-Jun-19 04:00N 59°06' E 010°14'0 0.0
2017-Jun-19 03:30N 59°06' E 010°14'0 0.0
2017-Jun-19 02:58N 59°06' E 010°14'0 0.0
2017-Jun-19 02:28N 59°06' E 010°14'0 0.0
2017-Jun-19 01:58N 59°06' E 010°14'0 0.0
2017-Jun-19 01:29N 59°06' E 010°14'0 0.0
2017-Jun-19 00:59N 59°06' E 010°14'0 0.0
2017-Jun-19 00:29N 59°06' E 010°14'0 0.0
2017-Jun-19 00:00N 59°06' E 010°14'0 0.0
2017-Jun-18 23:30N 59°06' E 010°14'0 0.0
2017-Jun-18 23:00N 59°06' E 010°14'0 0.0
2017-Jun-18 22:28N 59°06' E 010°14'0 0.0
2017-Jun-18 21:58N 59°06' E 010°14'0 0.0
2017-Jun-18 21:28N 59°06' E 010°14'0 0.0
2017-Jun-18 20:59N 59°06' E 010°14'0 0.0
2017-Jun-18 20:29N 59°06' E 010°14'0 0.0
2017-Jun-18 19:59N 59°06' E 010°14'1 1.4
2017-Jun-18 19:30N 59°07' E 010°14'1 1.5
2017-Jun-18 19:00N 59°08' E 010°14'4 7.7
2017-Jun-18 18:31N 59°04' E 010°15'713.9
2017-Jun-18 18:01N 59°01' E 010°27'815.7
2017-Jun-18 17:31N 59°01' E 010°42'815.6
2017-Jun-18 17:01N 59°00' E 010°57'815.3
2017-Jun-18 16:31N 58°56' E 011°09'0 0.8
2017-Jun-18 16:01N 58°56' E 011°10'4 7.7
2017-Jun-18 15:31N 58°57' E 011°03'815.7
2017-Jun-18 15:01N 59°01' E 010°50'1514.9
2017-Jun-18 14:01N 59°01' E 010°21'713.1
2017-Jun-18 13:31N 59°06' E 010°14'1 2.7
2017-Jun-18 13:01N 59°08' E 010°14'0 0.0
2017-Jun-18 12:30N 59°08' E 010°14'5 9.6
2017-Jun-18 12:01N 59°03' E 010°15'714.4
2017-Jun-18 11:31N 59°01' E 010°29'815.1
2017-Jun-18 11:01N 59°01' E 010°43'815.1
2017-Jun-18 10:31N 59°00' E 010°58'714.9
2017-Jun-18 10:01N 58°56' E 011°09'0 0.8
2017-Jun-18 09:31N 58°56' E 011°10'0 0.4
2017-Jun-18 09:01N 58°56' E 011°10'713.6
2017-Jun-18 08:31N 58°60' E 010°59'714.7
2017-Jun-18 08:01N 59°02' E 010°45'815.2
2017-Jun-18 07:31N 59°00' E 010°30'815.6
2017-Jun-18 07:00N 59°02' E 010°16'510.7
2017-Jun-18 06:31N 59°08' E 010°14'0 0.0
2017-Jun-18 06:01N 59°08' E 010°14'1 2.8
2017-Jun-18 05:31N 59°06' E 010°14'0 0.0
2017-Jun-18 05:00N 59°06' E 010°14'0 0.0
2017-Jun-18 04:28N 59°06' E 010°14'0 0.0
2017-Jun-18 03:58N 59°06' E 010°14'0 0.0
2017-Jun-18 03:29N 59°06' E 010°14'0 0.0
2017-Jun-18 02:59N 59°06' E 010°14'0 0.0
2017-Jun-18 02:29N 59°06' E 010°14'0 0.0
2017-Jun-18 02:00N 59°06' E 010°14'0 0.0
2017-Jun-18 01:30N 59°06' E 010°14'0 0.0
2017-Jun-18 01:00N 59°06' E 010°14'0 0.0
2017-Jun-18 00:28N 59°06' E 010°14'0 0.0
2017-Jun-17 23:58N 59°06' E 010°14'0 0.0
2017-Jun-17 23:25N 59°06' E 010°14'0 0.0
2017-Jun-17 22:59N 59°06' E 010°14'0 0.0
2017-Jun-17 22:29N 59°06' E 010°14'0 0.0
2017-Jun-17 21:59N 59°06' E 010°14'0 0.0
2017-Jun-17 21:30N 59°06' E 010°14'0 0.0
2017-Jun-17 21:00N 59°06' E 010°14'0 0.0
2017-Jun-17 20:30N 59°06' E 010°14'0 0.0
2017-Jun-17 19:58N 59°06' E 010°14'0 0.7
2017-Jun-17 19:30N 59°06' E 010°14'1 2.2
2017-Jun-17 19:00N 59°08' E 010°14'4 8.1
2017-Jun-17 18:30N 59°04' E 010°15'714.1
2017-Jun-17 18:01N 59°01' E 010°28'815.3
2017-Jun-17 17:31N 59°01' E 010°42'714.8
2017-Jun-17 17:01N 59°00' E 010°57'815.3
2017-Jun-17 16:31N 58°56' E 011°08'1 1.8
2017-Jun-17 16:00N 58°56' E 011°10'4 7.9
2017-Jun-17 15:30N 58°57' E 011°03'816.2
2017-Jun-17 15:00N 59°01' E 010°49'816.8
2017-Jun-17 14:31N 59°01' E 010°33'1212.1
2017-Jun-17 13:30N 59°07' E 010°14'0 0.2
2017-Jun-17 13:01N 59°08' E 010°14'0 0.0
2017-Jun-17 12:31N 59°08' E 010°14'5 9.1
2017-Jun-17 12:01N 59°03' E 010°15'714.1
2017-Jun-17 11:31N 59°01' E 010°28'815.2
2017-Jun-17 11:01N 59°01' E 010°43'714.8
2017-Jun-17 10:31N 59°00' E 010°57'714.8
2017-Jun-17 10:01N 58°56' E 011°09'1 1.5
2017-Jun-17 09:31N 58°56' E 011°10'0 0.1
2017-Jun-17 09:01N 58°56' E 011°10'713.1
2017-Jun-17 08:30N 58°59' E 010°59'815.9
2017-Jun-17 08:00N 59°01' E 010°44'815.6
2017-Jun-17 07:30N 59°01' E 010°29'714.5
2017-Jun-17 07:01N 59°02' E 010°16'510.6
2017-Jun-17 06:30N 59°08' E 010°14'0 0.0
2017-Jun-17 06:00N 59°08' E 010°14'0 0.8
2017-Jun-17 05:30N 59°07' E 010°14'1 2.0
2017-Jun-17 05:00N 59°06' E 010°14'0 0.0
2017-Jun-17 04:29N 59°06' E 010°14'0 0.0
2017-Jun-17 04:00N 59°06' E 010°14'0 0.0
2017-Jun-17 03:30N 59°06' E 010°14'0 0.0
2017-Jun-17 03:00N 59°06' E 010°14'0 0.0
2017-Jun-17 02:28N 59°06' E 010°14'0 0.0
2017-Jun-17 01:58N 59°06' E 010°14'0 0.0
2017-Jun-17 01:28N 59°06' E 010°14'0 0.0
2017-Jun-17 00:59N 59°06' E 010°14'0 0.0
2017-Jun-17 00:29N 59°06' E 010°14'0 0.0
2017-Jun-16 23:59N 59°06' E 010°14'0 0.0
2017-Jun-16 23:30N 59°06' E 010°14'0 0.0
2017-Jun-16 23:00N 59°06' E 010°14'0 0.0
2017-Jun-16 22:30N 59°06' E 010°14'0 0.0
2017-Jun-16 21:58N 59°06' E 010°14'0 0.0
2017-Jun-16 21:28N 59°06' E 010°14'0 0.0
2017-Jun-16 20:58N 59°06' E 010°14'0 0.0
2017-Jun-16 20:31N 59°06' E 010°14'0 0.0
2017-Jun-16 20:01N 59°06' E 010°14'0 0.9
2017-Jun-16 19:30N 59°07' E 010°14'1 1.9
2017-Jun-16 18:59N 59°08' E 010°14'3 6.6
2017-Jun-16 18:30N 59°04' E 010°15'713.7
2017-Jun-16 18:01N 59°01' E 010°26'816.3
2017-Jun-16 17:30N 59°01' E 010°42'815.8
2017-Jun-16 17:01N 59°00' E 010°57'815.2
2017-Jun-16 16:31N 58°56' E 011°09'1 1.4
2017-Jun-16 16:01N 58°56' E 011°10'4 7.5
2017-Jun-16 15:31N 58°57' E 011°03'815.5
2017-Jun-16 15:01N 59°01' E 010°50'1615.6
2017-Jun-16 14:01N 59°01' E 010°20'713.2
2017-Jun-16 13:30N 59°07' E 010°14'1 1.7
2017-Jun-16 13:00N 59°08' E 010°14'0 0.0
2017-Jun-16 12:31N 59°08' E 010°14'4 8.8
2017-Jun-16 12:01N 59°03' E 010°15'713.4
2017-Jun-16 11:31N 59°01' E 010°27'714.9
2017-Jun-16 11:01N 59°01' E 010°42'714.6
2017-Jun-16 10:31N 59°00' E 010°56'714.9
2017-Jun-16 10:00N 58°56' E 011°08'1 2.7
2017-Jun-16 09:30N 58°56' E 011°10'0 0.0
2017-Jun-16 09:01N 58°56' E 011°10'612.1
2017-Jun-16 08:30N 58°59' E 011°00'816.1
2017-Jun-16 08:01N 59°02' E 010°45'816.4
2017-Jun-16 07:31N 59°01' E 010°29'815.1
2017-Jun-16 07:00N 59°03' E 010°15'510.2
2017-Jun-16 06:30N 59°08' E 010°14'0 0.0
2017-Jun-16 06:00N 59°08' E 010°14'1 2.9
2017-Jun-16 05:30N 59°06' E 010°14'0 0.0
2017-Jun-16 05:00N 59°06' E 010°14'0 0.0
2017-Jun-16 04:29N 59°06' E 010°14'0 0.0
2017-Jun-16 03:59N 59°06' E 010°14'0 0.0
2017-Jun-16 03:29N 59°06' E 010°14'0 0.0
2017-Jun-16 03:00N 59°06' E 010°14'0 0.0
2017-Jun-16 02:30N 59°06' E 010°14'0 0.0
2017-Jun-16 02:00N 59°06' E 010°14'0 0.0
2017-Jun-16 01:28N 59°06' E 010°14'0 0.0
2017-Jun-16 00:58N 59°06' E 010°14'0 0.0
2017-Jun-16 00:28N 59°06' E 010°14'0 0.0
2017-Jun-15 23:59N 59°06' E 010°14'0 0.0
2017-Jun-15 23:29N 59°06' E 010°14'0 0.0
2017-Jun-15 22:59N 59°06' E 010°14'0 0.0
2017-Jun-15 22:30N 59°06' E 010°14'0 0.0
2017-Jun-15 22:00N 59°06' E 010°14'0 0.0
2017-Jun-15 21:30N 59°06' E 010°14'0 0.0
2017-Jun-15 20:58N 59°06' E 010°14'0 0.0
2017-Jun-15 20:28N 59°06' E 010°14'0 0.0
2017-Jun-15 19:58N 59°06' E 010°14'0 0.0
2017-Jun-15 19:30N 59°06' E 010°14'1 2.9
2017-Jun-15 19:00N 59°08' E 010°14'4 7.4
2017-Jun-15 18:30N 59°04' E 010°15'714.2
2017-Jun-15 18:00N 59°01' E 010°27'816.2
2017-Jun-15 17:31N 59°01' E 010°43'816.0
2017-Jun-15 17:01N 58°60' E 010°58'714.5
2017-Jun-15 16:31N 58°56' E 011°10'0 0.2
2017-Jun-15 16:01N 58°56' E 011°10'3 6.8
2017-Jun-15 15:31N 58°57' E 011°04'715.0
2017-Jun-15 15:00N 59°01' E 010°52'815.2
2017-Jun-15 14:30N 59°01' E 010°37'1312.9
2017-Jun-15 13:30N 59°06' E 010°14'1 2.9
2017-Jun-15 13:01N 59°08' E 010°14'0 0.0
2017-Jun-15 12:30N 59°08' E 010°14'5 9.5
2017-Jun-15 12:01N 59°03' E 010°15'713.7
2017-Jun-15 11:30N 59°01' E 010°28'815.0
2017-Jun-15 11:00N 59°02' E 010°42'714.5
2017-Jun-15 10:31N 59°00' E 010°56'714.7
2017-Jun-15 10:01N 58°56' E 011°08'1 2.3
2017-Jun-15 09:31N 58°56' E 011°10'0 0.4
2017-Jun-15 09:00N 58°56' E 011°10'713.2
2017-Jun-15 08:31N 58°60' E 010°59'815.4
2017-Jun-15 08:00N 59°02' E 010°45'815.4
2017-Jun-15 07:31N 59°01' E 010°30'714.9
2017-Jun-15 07:01N 59°02' E 010°16'510.9
2017-Jun-15 06:30N 59°08' E 010°14'0 0.1
2017-Jun-15 06:00N 59°08' E 010°14'1 2.9
2017-Jun-15 05:30N 59°06' E 010°14'0 0.1
2017-Jun-15 05:00N 59°06' E 010°14'0 0.0
2017-Jun-15 04:31N 59°06' E 010°14'0 0.0
2017-Jun-15 03:58N 59°06' E 010°14'0 0.0
2017-Jun-15 03:28N 59°06' E 010°14'0 0.0
2017-Jun-15 02:59N 59°06' E 010°14'0 0.0
2017-Jun-15 02:29N 59°06' E 010°14'0 0.0
2017-Jun-15 01:59N 59°06' E 010°14'0 0.0
2017-Jun-15 01:30N 59°06' E 010°14'0 0.0
2017-Jun-15 01:00N 59°06' E 010°14'0 0.0
2017-Jun-15 00:27N 59°06' E 010°14'0 0.0
2017-Jun-15 00:01N 59°06' E 010°14'0 0.0
2017-Jun-14 23:28N 59°06' E 010°14'0 0.0
2017-Jun-14 22:58N 59°06' E 010°14'0 0.0
2017-Jun-14 22:29N 59°06' E 010°14'0 0.0
2017-Jun-14 21:59N 59°06' E 010°14'0 0.0
2017-Jun-14 21:29N 59°06' E 010°14'0 0.0
2017-Jun-14 21:00N 59°06' E 010°14'0 0.0
2017-Jun-14 20:30N 59°06' E 010°14'0 0.0
2017-Jun-14 20:00N 59°06' E 010°14'0 0.0
2017-Jun-14 19:28N 59°06' E 010°14'1 2.9
2017-Jun-14 18:58N 59°08' E 010°14'2 5.2
2017-Jun-14 18:30N 59°05' E 010°14'613.0
2017-Jun-14 18:00N 59°01' E 010°24'816.3
2017-Jun-14 17:30N 59°01' E 010°40'815.8
2017-Jun-14 17:00N 59°00' E 010°55'815.7
2017-Jun-14 16:30N 58°56' E 011°08'1 2.6
2017-Jun-14 16:00N 58°56' E 011°10'4 7.5
2017-Jun-14 15:30N 58°57' E 011°03'714.0
2017-Jun-14 15:00N 59°01' E 010°52'1514.7
2017-Jun-14 14:01N 59°01' E 010°23'713.0
2017-Jun-14 13:31N 59°06' E 010°14'2 4.2
2017-Jun-14 13:00N 59°08' E 010°14'0 0.0
2017-Jun-14 12:30N 59°08' E 010°14'4 8.8
2017-Jun-14 12:00N 59°03' E 010°15'714.4
2017-Jun-14 11:31N 59°01' E 010°28'815.2
2017-Jun-14 11:01N 59°02' E 010°43'815.0
2017-Jun-14 10:30N 58°60' E 010°57'714.5
2017-Jun-14 10:01N 58°56' E 011°09'1 1.6
2017-Jun-14 09:31N 58°56' E 011°10'0 0.0
2017-Jun-14 09:01N 58°56' E 011°10'510.4
2017-Jun-14 08:31N 58°59' E 011°01'815.7
2017-Jun-14 08:01N 59°02' E 010°47'815.7
2017-Jun-14 07:30N 59°00' E 010°32'815.0
2017-Jun-14 07:01N 59°01' E 010°18'612.8
2017-Jun-14 06:30N 59°07' E 010°14'0 0.6
2017-Jun-14 06:00N 59°08' E 010°14'1 2.9
2017-Jun-14 05:31N 59°06' E 010°14'0 0.1
2017-Jun-14 05:00N 59°06' E 010°14'0 0.0
2017-Jun-14 04:30N 59°06' E 010°14'0 0.0
2017-Jun-14 04:00N 59°06' E 010°14'  
Track history (hours):
 
Tides and Currents Weather Stations Pressure Air Temp Water Temp Dewpoint Dewpoint Depression Visibility Wind Speed Wind Dir Waves Ship Positions

DucheSS Of Scandinavia

Operator: DFDS A/S

Last reported at 2017-Jun-24 03:29 UTC. Time now 2017-Jun-24 03:44 UTC.
Position N 59°06' E 010°14'.

Length 134 m; draft 5.4 m.

Type: Passenger vessel. MMSI: 219002929.

Date/timePositionNaut miles runAvg speedWind from/ knotsBaromVisibWave heightAir tempDewpointWater temp
2017-Jun-24 03:29N 59°06' E 010°14'0 0.0
2017-Jun-24 02:59N 59°06' E 010°14'0 0.0
2017-Jun-24 02:29N 59°06' E 010°14'0 0.0
2017-Jun-24 02:00N 59°06' E 010°14'0 0.0
2017-Jun-24 01:30N 59°06' E 010°14'0 0.0
2017-Jun-24 00:57N 59°06' E 010°14'0 0.0
2017-Jun-24 00:28N 59°06' E 010°14'0 0.0
2017-Jun-23 23:58N 59°06' E 010°14'0 0.0
2017-Jun-23 23:28N 59°06' E 010°14'0 0.0
2017-Jun-23 22:59N 59°06' E 010°14'0 0.0
2017-Jun-23 22:29N 59°06' E 010°14'0 0.0
2017-Jun-23 21:59N 59°06' E 010°14'0 0.0
2017-Jun-23 21:30N 59°06' E 010°14'0 0.0
2017-Jun-23 21:00N 59°06' E 010°14'0 0.0
2017-Jun-23 20:27N 59°06' E 010°14'0 0.0
2017-Jun-23 20:01N 59°06' E 010°14'1 1.2
2017-Jun-23 19:30N 59°07' E 010°14'1 1.7
2017-Jun-23 19:01N 59°08' E 010°14'4 8.0
2017-Jun-23 18:31N 59°04' E 010°15'713.9
2017-Jun-23 18:01N 59°01' E 010°27'815.6
2017-Jun-23 17:30N 59°01' E 010°42'815.6
2017-Jun-23 17:01N 59°00' E 010°57'714.9
2017-Jun-23 16:31N 58°56' E 011°09'0 0.9
2017-Jun-23 16:00N 58°56' E 011°10'4 8.0
2017-Jun-23 15:31N 58°58' E 011°03'815.7
2017-Jun-23 15:00N 59°01' E 010°50'1615.8
2017-Jun-23 14:01N 59°01' E 010°19'612.9
2017-Jun-23 13:30N 59°07' E 010°14'1 1.2
2017-Jun-23 13:00N 59°08' E 010°14'0 0.0
2017-Jun-23 12:31N 59°08' E 010°14'4 8.5
2017-Jun-23 12:00N 59°03' E 010°15'713.6
2017-Jun-23 11:31N 59°01' E 010°27'815.4
2017-Jun-23 11:01N 59°01' E 010°42'815.1
2017-Jun-23 10:31N 59°00' E 010°57'715.0
2017-Jun-23 10:01N 58°56' E 011°09'1 1.7
2017-Jun-23 09:31N 58°56' E 011°10'0 0.1
2017-Jun-23 09:01N 58°56' E 011°10'612.3
2017-Jun-23 08:31N 58°59' E 010°60'714.9
2017-Jun-23 08:01N 59°02' E 010°46'714.9
2017-Jun-23 07:30N 59°00' E 010°32'815.1
2017-Jun-23 07:01N 59°01' E 010°17'612.5
2017-Jun-23 06:30N 59°07' E 010°14'0 0.4
2017-Jun-23 06:01N 59°08' E 010°14'0 0.7
2017-Jun-23 05:30N 59°07' E 010°14'1 2.1
2017-Jun-23 05:00N 59°06' E 010°14'0 0.0
2017-Jun-23 04:29N 59°06' E 010°14'0 0.0
2017-Jun-23 03:59N 59°06' E 010°14'0 0.0
2017-Jun-23 03:29N 59°06' E 010°14'0 0.0
2017-Jun-23 03:00N 59°06' E 010°14'0 0.0
2017-Jun-23 02:30N 59°06' E 010°14'0 0.0
2017-Jun-23 02:00N 59°06' E 010°14'0 0.0
2017-Jun-23 01:28N 59°06' E 010°14'0 0.0
2017-Jun-23 00:58N 59°06' E 010°14'0 0.0
2017-Jun-23 00:28N 59°06' E 010°14'0 0.0
2017-Jun-22 23:59N 59°06' E 010°14'0 0.0
2017-Jun-22 23:29N 59°06' E 010°14'0 0.0
2017-Jun-22 22:59N 59°06' E 010°14'0 0.0
2017-Jun-22 22:30N 59°06' E 010°14'0 0.0
2017-Jun-22 22:00N 59°06' E 010°14'0 0.0
2017-Jun-22 21:30N 59°06' E 010°14'0 0.0
2017-Jun-22 20:58N 59°06' E 010°14'0 0.0
2017-Jun-22 20:28N 59°06' E 010°14'0 0.0
2017-Jun-22 19:58N 59°06' E 010°14'0 0.2
2017-Jun-22 19:30N 59°06' E 010°14'1 2.7
2017-Jun-22 19:01N 59°08' E 010°14'4 8.0
2017-Jun-22 18:31N 59°04' E 010°15'714.7
2017-Jun-22 18:00N 59°01' E 010°28'816.5
2017-Jun-22 17:30N 59°01' E 010°44'816.4
2017-Jun-22 17:01N 58°59' E 010°59'713.1
2017-Jun-22 16:31N 58°56' E 011°10'0 0.0
2017-Jun-22 16:01N 58°56' E 011°10'4 7.6
2017-Jun-22 15:30N 58°57' E 011°03'815.1
2017-Jun-22 15:01N 59°01' E 010°51'1515.3
2017-Jun-22 14:01N 59°01' E 010°21'713.4
2017-Jun-22 13:30N 59°07' E 010°14'1 1.9
2017-Jun-22 13:00N 59°08' E 010°14'0 0.0
2017-Jun-22 12:31N 59°08' E 010°14'4 8.6
2017-Jun-22 12:01N 59°03' E 010°15'612.5
2017-Jun-22 11:30N 59°01' E 010°26'714.8
2017-Jun-22 11:00N 59°02' E 010°40'815.7
2017-Jun-22 10:30N 59°00' E 010°55'816.0
2017-Jun-22 10:00N 58°56' E 011°08'1 2.0
2017-Jun-22 09:30N 58°56' E 011°10'0 0.6
2017-Jun-22 09:01N 58°56' E 011°10'714.5
2017-Jun-22 08:31N 58°60' E 010°58'815.9
2017-Jun-22 08:00N 59°01' E 010°42'816.6
2017-Jun-22 07:30N 59°01' E 010°26'714.3
2017-Jun-22 07:00N 59°04' E 010°15'3 6.4
2017-Jun-22 06:30N 59°08' E 010°14'0 0.0
2017-Jun-22 06:00N 59°08' E 010°14'1 2.8
2017-Jun-22 05:31N 59°06' E 010°14'0 0.2
2017-Jun-22 05:00N 59°06' E 010°14'0 0.0
2017-Jun-22 04:30N 59°06' E 010°14'0 0.0
2017-Jun-22 04:00N 59°06' E 010°14'0 0.0
2017-Jun-22 03:30N 59°06' E 010°14'0 0.0
2017-Jun-22 02:58N 59°06' E 010°14'0 0.0
2017-Jun-22 02:28N 59°06' E 010°14'0 0.0
2017-Jun-22 01:58N 59°06' E 010°14'0 0.0
2017-Jun-22 01:29N 59°06' E 010°14'0 0.0
2017-Jun-22 00:59N 59°06' E 010°14'0 0.0
2017-Jun-22 00:29N 59°06' E 010°14'0 0.0
2017-Jun-22 00:00N 59°06' E 010°14'0 0.0
2017-Jun-21 23:30N 59°06' E 010°14'0 0.0
2017-Jun-21 23:00N 59°06' E 010°14'0 0.0
2017-Jun-21 22:28N 59°06' E 010°14'0 0.0
2017-Jun-21 21:58N 59°06' E 010°14'0 0.0
2017-Jun-21 21:28N 59°06' E 010°14'0 0.0
2017-Jun-21 20:59N 59°06' E 010°14'0 0.0
2017-Jun-21 20:29N 59°06' E 010°14'0 0.0
2017-Jun-21 19:59N 59°06' E 010°14'0 1.0
2017-Jun-21 19:30N 59°07' E 010°14'1 1.9
2017-Jun-21 19:01N 59°08' E 010°14'3 5.9
2017-Jun-21 18:30N 59°05' E 010°15'713.9
2017-Jun-21 18:01N 59°01' E 010°26'816.2
2017-Jun-21 17:30N 59°02' E 010°42'815.6
2017-Jun-21 17:00N 59°00' E 010°57'815.5
2017-Jun-21 16:31N 58°56' E 011°09'1 1.4
2017-Jun-21 16:00N 58°56' E 011°10'4 7.8
2017-Jun-21 15:31N 58°57' E 011°03'815.0
2017-Jun-21 15:00N 59°01' E 010°50'815.3
2017-Jun-21 14:30N 59°01' E 010°36'1212.3
2017-Jun-21 13:30N 59°06' E 010°14'1 2.8
2017-Jun-21 13:00N 59°08' E 010°14'0 0.0
2017-Jun-21 12:31N 59°08' E 010°14'4 8.8
2017-Jun-21 12:00N 59°03' E 010°15'713.7
2017-Jun-21 11:30N 59°01' E 010°28'714.9
2017-Jun-21 11:01N 59°01' E 010°42'714.5
2017-Jun-21 10:31N 59°00' E 010°56'815.6
2017-Jun-21 10:01N 58°56' E 011°08'1 2.0
2017-Jun-21 09:30N 58°56' E 011°10'0 0.4
2017-Jun-21 09:01N 58°56' E 011°10'713.1
2017-Jun-21 08:31N 58°59' E 010°59'815.5
2017-Jun-21 08:00N 59°01' E 010°44'815.9
2017-Jun-21 07:31N 59°01' E 010°29'714.8
2017-Jun-21 07:00N 59°03' E 010°15'510.2
2017-Jun-21 06:31N 59°08' E 010°14'0 0.1
2017-Jun-21 06:01N 59°08' E 010°14'1 1.1
2017-Jun-21 05:31N 59°07' E 010°14'1 1.8
2017-Jun-21 05:01N 59°06' E 010°14'0 0.0
2017-Jun-21 04:29N 59°06' E 010°14'0 0.0
2017-Jun-21 03:56N 59°06' E 010°14'0 0.0
2017-Jun-21 03:30N 59°06' E 010°14'0 0.0
2017-Jun-21 03:00N 59°06' E 010°14'0 0.0
2017-Jun-21 02:30N 59°06' E 010°14'0 0.0
2017-Jun-21 01:58N 59°06' E 010°14'0 0.0
2017-Jun-21 01:28N 59°06' E 010°14'0 0.0
2017-Jun-21 00:58N 59°06' E 010°14'0 0.0
2017-Jun-21 00:29N 59°06' E 010°14'0 0.0
2017-Jun-20 23:59N 59°06' E 010°14'0 0.0
2017-Jun-20 23:29N 59°06' E 010°14'0 0.0
2017-Jun-20 23:00N 59°06' E 010°14'0 0.0
2017-Jun-20 22:30N 59°06' E 010°14'0 0.0
2017-Jun-20 22:00N 59°06' E 010°14'0 0.0
2017-Jun-20 21:28N 59°06' E 010°14'0 0.0
2017-Jun-20 20:58N 59°06' E 010°14'0 0.0
2017-Jun-20 20:28N 59°06' E 010°14'0 0.0
2017-Jun-20 20:00N 59°06' E 010°14'1 2.2
2017-Jun-20 19:24N 59°08' E 010°14'0 0.2
2017-Jun-20 19:00N 59°08' E 010°14'3 6.0
2017-Jun-20 18:31N 59°05' E 010°15'612.7
2017-Jun-20 18:01N 59°01' E 010°25'816.6
2017-Jun-20 17:31N 59°02' E 010°41'816.4
2017-Jun-20 17:01N 59°00' E 010°56'815.7
2017-Jun-20 16:31N 58°56' E 011°09'1 1.3
2017-Jun-20 16:01N 58°56' E 011°10'4 7.2
2017-Jun-20 15:31N 58°57' E 011°04'815.9
2017-Jun-20 15:01N 59°01' E 010°50'815.8
2017-Jun-20 14:31N 59°01' E 010°35'1212.5
2017-Jun-20 13:30N 59°07' E 010°14'1 1.8
2017-Jun-20 13:01N 59°08' E 010°14'0 0.0
2017-Jun-20 12:31N 59°08' E 010°14'4 8.1
2017-Jun-20 12:00N 59°04' E 010°15'611.6
2017-Jun-20 11:31N 59°01' E 010°25'815.3
2017-Jun-20 11:01N 59°01' E 010°40'815.7
2017-Jun-20 10:31N 59°00' E 010°55'816.0
2017-Jun-20 10:01N 58°56' E 011°08'1 2.2
2017-Jun-20 09:30N 58°56' E 011°10'0 0.1
2017-Jun-20 09:01N 58°56' E 011°10'612.5
2017-Jun-20 08:31N 58°59' E 010°60'815.1
2017-Jun-20 08:01N 59°02' E 010°46'816.0
2017-Jun-20 07:31N 59°00' E 010°30'815.2
2017-Jun-20 07:01N 59°02' E 010°16'611.7
2017-Jun-20 06:31N 59°08' E 010°14'0 0.1
2017-Jun-20 06:01N 59°08' E 010°14'0 0.8
2017-Jun-20 05:30N 59°07' E 010°14'1 2.1
2017-Jun-20 05:01N 59°06' E 010°14'0 0.0
2017-Jun-20 04:30N 59°06' E 010°14'0 0.0
2017-Jun-20 04:00N 59°06' E 010°14'0 0.0
2017-Jun-20 03:30N 59°06' E 010°14'0 0.0
2017-Jun-20 03:00N 59°06' E 010°14'0 0.0
2017-Jun-20 02:28N 59°06' E 010°14'0 0.0
2017-Jun-20 01:58N 59°06' E 010°14'0 0.0
2017-Jun-20 01:29N 59°06' E 010°14'0 0.0
2017-Jun-20 00:59N 59°06' E 010°14'0 0.0
2017-Jun-20 00:29N 59°06' E 010°14'0 0.0
2017-Jun-20 00:00N 59°06' E 010°14'0 0.0
2017-Jun-19 23:30N 59°06' E 010°14'0 0.0
2017-Jun-19 23:00N 59°06' E 010°14'0 0.0
2017-Jun-19 22:31N 59°06' E 010°14'0 0.0
2017-Jun-19 21:58N 59°06' E 010°14'0 0.0
2017-Jun-19 21:28N 59°06' E 010°14'0 0.0
2017-Jun-19 20:59N 59°06' E 010°14'0 0.0
2017-Jun-19 20:29N 59°06' E 010°14'0 0.0
2017-Jun-19 19:59N 59°06' E 010°14'0 0.1
2017-Jun-19 19:31N 59°06' E 010°14'1 2.7
2017-Jun-19 19:00N 59°08' E 010°14'4 8.5
2017-Jun-19 18:30N 59°03' E 010°15'713.8
2017-Jun-19 18:01N 59°01' E 010°27'714.8
2017-Jun-19 17:31N 59°01' E 010°42'715.0
2017-Jun-19 17:01N 59°00' E 010°56'815.7
2017-Jun-19 16:31N 58°56' E 011°08'1 1.9
2017-Jun-19 16:01N 58°56' E 011°10'4 8.3
2017-Jun-19 15:31N 58°58' E 011°03'815.4
2017-Jun-19 15:01N 59°01' E 010°50'1615.8
2017-Jun-19 14:01N 59°01' E 010°19'712.9
2017-Jun-19 13:29N 59°07' E 010°14'0 0.8
2017-Jun-19 13:01N 59°08' E 010°14'0 0.0
2017-Jun-19 12:30N 59°08' E 010°14'5 9.9
2017-Jun-19 12:01N 59°03' E 010°15'714.9
2017-Jun-19 11:30N 59°01' E 010°29'714.9
2017-Jun-19 11:01N 59°01' E 010°44'714.7
2017-Jun-19 10:31N 59°00' E 010°58'714.4
2017-Jun-19 10:01N 58°56' E 011°09'1 1.2
2017-Jun-19 09:31N 58°56' E 011°10'0 0.3
2017-Jun-19 09:01N 58°56' E 011°10'613.0
2017-Jun-19 08:31N 58°59' E 010°59'714.6
2017-Jun-19 08:01N 59°02' E 010°46'815.0
2017-Jun-19 07:31N 59°00' E 010°31'714.6
2017-Jun-19 07:01N 59°01' E 010°17'612.4
2017-Jun-19 06:31N 59°07' E 010°14'0 0.5
2017-Jun-19 06:01N 59°08' E 010°14'1 2.8
2017-Jun-19 05:31N 59°06' E 010°14'0 0.0
2017-Jun-19 05:00N 59°06' E 010°14'0 0.0
2017-Jun-19 04:30N 59°06' E 010°14'0 0.0
2017-Jun-19 04:00N 59°06' E 010°14'0 0.0
2017-Jun-19 03:30N 59°06' E 010°14'0 0.0
2017-Jun-19 02:58N 59°06' E 010°14'0 0.0
2017-Jun-19 02:28N 59°06' E 010°14'0 0.0
2017-Jun-19 01:58N 59°06' E 010°14'0 0.0
2017-Jun-19 01:29N 59°06' E 010°14'0 0.0
2017-Jun-19 00:59N 59°06' E 010°14'0 0.0
2017-Jun-19 00:29N 59°06' E 010°14'0 0.0
2017-Jun-19 00:00N 59°06' E 010°14'0 0.0
2017-Jun-18 23:30N 59°06' E 010°14'0 0.0
2017-Jun-18 23:00N 59°06' E 010°14'0 0.0
2017-Jun-18 22:28N 59°06' E 010°14'0 0.0
2017-Jun-18 21:58N 59°06' E 010°14'0 0.0
2017-Jun-18 21:28N 59°06' E 010°14'0 0.0
2017-Jun-18 20:59N 59°06' E 010°14'0 0.0
2017-Jun-18 20:29N 59°06' E 010°14'0 0.0
2017-Jun-18 19:59N 59°06' E 010°14'1 1.4
2017-Jun-18 19:30N 59°07' E 010°14'1 1.5
2017-Jun-18 19:00N 59°08' E 010°14'4 7.7
2017-Jun-18 18:31N 59°04' E 010°15'713.9
2017-Jun-18 18:01N 59°01' E 010°27'815.7
2017-Jun-18 17:31N 59°01' E 010°42'815.6
2017-Jun-18 17:01N 59°00' E 010°57'815.3
2017-Jun-18 16:31N 58°56' E 011°09'0 0.8
2017-Jun-18 16:01N 58°56' E 011°10'4 7.7
2017-Jun-18 15:31N 58°57' E 011°03'815.7
2017-Jun-18 15:01N 59°01' E 010°50'1514.9
2017-Jun-18 14:01N 59°01' E 010°21'713.1
2017-Jun-18 13:31N 59°06' E 010°14'1 2.7
2017-Jun-18 13:01N 59°08' E 010°14'0 0.0
2017-Jun-18 12:30N 59°08' E 010°14'5 9.6
2017-Jun-18 12:01N 59°03' E 010°15'714.4
2017-Jun-18 11:31N 59°01' E 010°29'815.1
2017-Jun-18 11:01N 59°01' E 010°43'815.1
2017-Jun-18 10:31N 59°00' E 010°58'714.9
2017-Jun-18 10:01N 58°56' E 011°09'0 0.8
2017-Jun-18 09:31N 58°56' E 011°10'0 0.4
2017-Jun-18 09:01N 58°56' E 011°10'713.6
2017-Jun-18 08:31N 58°60' E 010°59'714.7
2017-Jun-18 08:01N 59°02' E 010°45'815.2
2017-Jun-18 07:31N 59°00' E 010°30'815.6
2017-Jun-18 07:00N 59°02' E 010°16'510.7
2017-Jun-18 06:31N 59°08' E 010°14'0 0.0
2017-Jun-18 06:01N 59°08' E 010°14'1 2.8
2017-Jun-18 05:31N 59°06' E 010°14'0 0.0
2017-Jun-18 05:00N 59°06' E 010°14'0 0.0
2017-Jun-18 04:28N 59°06' E 010°14'0 0.0
2017-Jun-18 03:58N 59°06' E 010°14'0 0.0
2017-Jun-18 03:29N 59°06' E 010°14'0 0.0
2017-Jun-18 02:59N 59°06' E 010°14'0 0.0
2017-Jun-18 02:29N 59°06' E 010°14'0 0.0
2017-Jun-18 02:00N 59°06' E 010°14'0 0.0
2017-Jun-18 01:30N 59°06' E 010°14'0 0.0
2017-Jun-18 01:00N 59°06' E 010°14'0 0.0
2017-Jun-18 00:28N 59°06' E 010°14'0 0.0
2017-Jun-17 23:58N 59°06' E 010°14'0 0.0
2017-Jun-17 23:25N 59°06' E 010°14'0 0.0
2017-Jun-17 22:59N 59°06' E 010°14'0 0.0
2017-Jun-17 22:29N 59°06' E 010°14'0 0.0
2017-Jun-17 21:59N 59°06' E 010°14'0 0.0
2017-Jun-17 21:30N 59°06' E 010°14'0 0.0
2017-Jun-17 21:00N 59°06' E 010°14'0 0.0
2017-Jun-17 20:30N 59°06' E 010°14'0 0.0
2017-Jun-17 19:58N 59°06' E 010°14'0 0.7
2017-Jun-17 19:30N 59°06' E 010°14'1 2.2
2017-Jun-17 19:00N 59°08' E 010°14'4 8.1
2017-Jun-17 18:30N 59°04' E 010°15'714.1
2017-Jun-17 18:01N 59°01' E 010°28'815.3
2017-Jun-17 17:31N 59°01' E 010°42'714.8
2017-Jun-17 17:01N 59°00' E 010°57'815.3
2017-Jun-17 16:31N 58°56' E 011°08'1 1.8
2017-Jun-17 16:00N 58°56' E 011°10'4 7.9
2017-Jun-17 15:30N 58°57' E 011°03'816.2
2017-Jun-17 15:00N 59°01' E 010°49'816.8
2017-Jun-17 14:31N 59°01' E 010°33'1212.1
2017-Jun-17 13:30N 59°07' E 010°14'0 0.2
2017-Jun-17 13:01N 59°08' E 010°14'0 0.0
2017-Jun-17 12:31N 59°08' E 010°14'5 9.1
2017-Jun-17 12:01N 59°03' E 010°15'714.1
2017-Jun-17 11:31N 59°01' E 010°28'815.2
2017-Jun-17 11:01N 59°01' E 010°43'714.8
2017-Jun-17 10:31N 59°00' E 010°57'714.8
2017-Jun-17 10:01N 58°56' E 011°09'1 1.5
2017-Jun-17 09:31N 58°56' E 011°10'0 0.1
2017-Jun-17 09:01N 58°56' E 011°10'713.1
2017-Jun-17 08:30N 58°59' E 010°59'815.9
2017-Jun-17 08:00N 59°01' E 010°44'815.6
2017-Jun-17 07:30N 59°01' E 010°29'714.5
2017-Jun-17 07:01N 59°02' E 010°16'510.6
2017-Jun-17 06:30N 59°08' E 010°14'0 0.0
2017-Jun-17 06:00N 59°08' E 010°14'0 0.8
2017-Jun-17 05:30N 59°07' E 010°14'1 2.0
2017-Jun-17 05:00N 59°06' E 010°14'0 0.0
2017-Jun-17 04:29N 59°06' E 010°14'0 0.0
2017-Jun-17 04:00N 59°06' E 010°14'0 0.0
2017-Jun-17 03:30N 59°06' E 010°14'0 0.0
2017-Jun-17 03:00N 59°06' E 010°14'0 0.0
2017-Jun-17 02:28N 59°06' E 010°14'0 0.0
2017-Jun-17 01:58N 59°06' E 010°14'0 0.0
2017-Jun-17 01:28N 59°06' E 010°14'0 0.0
2017-Jun-17 00:59N 59°06' E 010°14'0 0.0
2017-Jun-17 00:29N 59°06' E 010°14'0 0.0
2017-Jun-16 23:59N 59°06' E 010°14'0 0.0
2017-Jun-16 23:30N 59°06' E 010°14'0 0.0
2017-Jun-16 23:00N 59°06' E 010°14'0 0.0
2017-Jun-16 22:30N 59°06' E 010°14'0 0.0
2017-Jun-16 21:58N 59°06' E 010°14'0 0.0
2017-Jun-16 21:28N 59°06' E 010°14'0 0.0
2017-Jun-16 20:58N 59°06' E 010°14'0 0.0
2017-Jun-16 20:31N 59°06' E 010°14'0 0.0
2017-Jun-16 20:01N 59°06' E 010°14'0 0.9
2017-Jun-16 19:30N 59°07' E 010°14'1 1.9
2017-Jun-16 18:59N 59°08' E 010°14'3 6.6
2017-Jun-16 18:30N 59°04' E 010°15'713.7
2017-Jun-16 18:01N 59°01' E 010°26'816.3
2017-Jun-16 17:30N 59°01' E 010°42'815.8
2017-Jun-16 17:01N 59°00' E 010°57'815.2
2017-Jun-16 16:31N 58°56' E 011°09'1 1.4
2017-Jun-16 16:01N 58°56' E 011°10'4 7.5
2017-Jun-16 15:31N 58°57' E 011°03'815.5
2017-Jun-16 15:01N 59°01' E 010°50'1615.6
2017-Jun-16 14:01N 59°01' E 010°20'713.2
2017-Jun-16 13:30N 59°07' E 010°14'1 1.7
2017-Jun-16 13:00N 59°08' E 010°14'0 0.0
2017-Jun-16 12:31N 59°08' E 010°14'4 8.8
2017-Jun-16 12:01N 59°03' E 010°15'713.4
2017-Jun-16 11:31N 59°01' E 010°27'714.9
2017-Jun-16 11:01N 59°01' E 010°42'714.6
2017-Jun-16 10:31N 59°00' E 010°56'714.9
2017-Jun-16 10:00N 58°56' E 011°08'1 2.7
2017-Jun-16 09:30N 58°56' E 011°10'0 0.0
2017-Jun-16 09:01N 58°56' E 011°10'612.1
2017-Jun-16 08:30N 58°59' E 011°00'816.1
2017-Jun-16 08:01N 59°02' E 010°45'816.4
2017-Jun-16 07:31N 59°01' E 010°29'815.1
2017-Jun-16 07:00N 59°03' E 010°15'510.2
2017-Jun-16 06:30N 59°08' E 010°14'0 0.0
2017-Jun-16 06:00N 59°08' E 010°14'1 2.9
2017-Jun-16 05:30N 59°06' E 010°14'0 0.0
2017-Jun-16 05:00N 59°06' E 010°14'0 0.0
2017-Jun-16 04:29N 59°06' E 010°14'0 0.0
2017-Jun-16 03:59N 59°06' E 010°14'0 0.0
2017-Jun-16 03:29N 59°06' E 010°14'0 0.0
2017-Jun-16 03:00N 59°06' E 010°14'0 0.0
2017-Jun-16 02:30N 59°06' E 010°14'0 0.0
2017-Jun-16 02:00N 59°06' E 010°14'0 0.0
2017-Jun-16 01:28N 59°06' E 010°14'0 0.0
2017-Jun-16 00:58N 59°06' E 010°14'0 0.0
2017-Jun-16 00:28N 59°06' E 010°14'0 0.0
2017-Jun-15 23:59N 59°06' E 010°14'0 0.0
2017-Jun-15 23:29N 59°06' E 010°14'0 0.0
2017-Jun-15 22:59N 59°06' E 010°14'0 0.0
2017-Jun-15 22:30N 59°06' E 010°14'0 0.0
2017-Jun-15 22:00N 59°06' E 010°14'0 0.0
2017-Jun-15 21:30N 59°06' E 010°14'0 0.0
2017-Jun-15 20:58N 59°06' E 010°14'0 0.0
2017-Jun-15 20:28N 59°06' E 010°14'0 0.0
2017-Jun-15 19:58N 59°06' E 010°14'0 0.0
2017-Jun-15 19:30N 59°06' E 010°14'1 2.9
2017-Jun-15 19:00N 59°08' E 010°14'4 7.4
2017-Jun-15 18:30N 59°04' E 010°15'714.2
2017-Jun-15 18:00N 59°01' E 010°27'816.2
2017-Jun-15 17:31N 59°01' E 010°43'816.0
2017-Jun-15 17:01N 58°60' E 010°58'714.5
2017-Jun-15 16:31N 58°56' E 011°10'0 0.2
2017-Jun-15 16:01N 58°56' E 011°10'3 6.8
2017-Jun-15 15:31N 58°57' E 011°04'715.0
2017-Jun-15 15:00N 59°01' E 010°52'815.2
2017-Jun-15 14:30N 59°01' E 010°37'1312.9
2017-Jun-15 13:30N 59°06' E 010°14'1 2.9
2017-Jun-15 13:01N 59°08' E 010°14'0 0.0
2017-Jun-15 12:30N 59°08' E 010°14'5 9.5
2017-Jun-15 12:01N 59°03' E 010°15'713.7
2017-Jun-15 11:30N 59°01' E 010°28'815.0
2017-Jun-15 11:00N 59°02' E 010°42'714.5
2017-Jun-15 10:31N 59°00' E 010°56'714.7
2017-Jun-15 10:01N 58°56' E 011°08'1 2.3
2017-Jun-15 09:31N 58°56' E 011°10'0 0.4
2017-Jun-15 09:00N 58°56' E 011°10'713.2
2017-Jun-15 08:31N 58°60' E 010°59'815.4
2017-Jun-15 08:00N 59°02' E 010°45'815.4
2017-Jun-15 07:31N 59°01' E 010°30'714.9
2017-Jun-15 07:01N 59°02' E 010°16'510.9
2017-Jun-15 06:30N 59°08' E 010°14'0 0.1
2017-Jun-15 06:00N 59°08' E 010°14'1 2.9
2017-Jun-15 05:30N 59°06' E 010°14'0 0.1
2017-Jun-15 05:00N 59°06' E 010°14'0 0.0
2017-Jun-15 04:31N 59°06' E 010°14'0 0.0
2017-Jun-15 03:58N 59°06' E 010°14'0 0.0
2017-Jun-15 03:28N 59°06' E 010°14'0 0.0
2017-Jun-15 02:59N 59°06' E 010°14'0 0.0
2017-Jun-15 02:29N 59°06' E 010°14'0 0.0
2017-Jun-15 01:59N 59°06' E 010°14'0 0.0
2017-Jun-15 01:30N 59°06' E 010°14'0 0.0
2017-Jun-15 01:00N 59°06' E 010°14'0 0.0
2017-Jun-15 00:27N 59°06' E 010°14'0 0.0
2017-Jun-15 00:01N 59°06' E 010°14'0 0.0
2017-Jun-14 23:28N 59°06' E 010°14'0 0.0
2017-Jun-14 22:58N 59°06' E 010°14'0 0.0
2017-Jun-14 22:29N 59°06' E 010°14'0 0.0
2017-Jun-14 21:59N 59°06' E 010°14'0 0.0
2017-Jun-14 21:29N 59°06' E 010°14'0 0.0
2017-Jun-14 21:00N 59°06' E 010°14'0 0.0
2017-Jun-14 20:30N 59°06' E 010°14'0 0.0
2017-Jun-14 20:00N 59°06' E 010°14'0 0.0
2017-Jun-14 19:28N 59°06' E 010°14'1 2.9
2017-Jun-14 18:58N 59°08' E 010°14'2 5.2
2017-Jun-14 18:30N 59°05' E 010°14'613.0
2017-Jun-14 18:00N 59°01' E 010°24'816.3
2017-Jun-14 17:30N 59°01' E 010°40'815.8
2017-Jun-14 17:00N 59°00' E 010°55'815.7
2017-Jun-14 16:30N 58°56' E 011°08'1 2.6
2017-Jun-14 16:00N 58°56' E 011°10'4 7.5
2017-Jun-14 15:30N 58°57' E 011°03'714.0
2017-Jun-14 15:00N 59°01' E 010°52'1514.7
2017-Jun-14 14:01N 59°01' E 010°23'713.0
2017-Jun-14 13:31N 59°06' E 010°14'2 4.2
2017-Jun-14 13:00N 59°08' E 010°14'0 0.0
2017-Jun-14 12:30N 59°08' E 010°14'4 8.8
2017-Jun-14 12:00N 59°03' E 010°15'714.4
2017-Jun-14 11:31N 59°01' E 010°28'815.2
2017-Jun-14 11:01N 59°02' E 010°43'815.0
2017-Jun-14 10:30N 58°60' E 010°57'714.5
2017-Jun-14 10:01N 58°56' E 011°09'1 1.6
2017-Jun-14 09:31N 58°56' E 011°10'0 0.0
2017-Jun-14 09:01N 58°56' E 011°10'510.4
2017-Jun-14 08:31N 58°59' E 011°01'815.7
2017-Jun-14 08:01N 59°02' E 010°47'815.7
2017-Jun-14 07:30N 59°00' E 010°32'815.0
2017-Jun-14 07:01N 59°01' E 010°18'612.8
2017-Jun-14 06:30N 59°07' E 010°14'0 0.6
2017-Jun-14 06:00N 59°08' E 010°14'1 2.9
2017-Jun-14 05:31N 59°06' E 010°14'0 0.1
2017-Jun-14 05:00N 59°06' E 010°14'0 0.0
2017-Jun-14 04:30N 59°06' E 010°14'0 0.0
2017-Jun-14 04:00N 59°06' E 010°14'  

Dump ship's entire track history